sensor_id;sensor_type;location;lat;lon;timestamp;pressure;altitude;pressure_sealevel;temperature;humidity
14383;BME280;7275;50.328;8.720;2023-03-18T00:01:29;99214.50;;;16.59;39.33
14383;BME280;7275;50.328;8.720;2023-03-18T00:03:57;99218.78;;;16.62;39.22
14383;BME280;7275;50.328;8.720;2023-03-18T00:06:25;99216.97;;;16.62;39.30
14383;BME280;7275;50.328;8.720;2023-03-18T00:08:53;99212.56;;;16.61;39.56
14383;BME280;7275;50.328;8.720;2023-03-18T00:11:23;99220.69;;;16.60;39.72
14383;BME280;7275;50.328;8.720;2023-03-18T00:13:52;99226.97;;;16.59;39.60
14383;BME280;7275;50.328;8.720;2023-03-18T00:16:20;99231.56;;;16.57;39.65
14383;BME280;7275;50.328;8.720;2023-03-18T00:18:48;99227.28;;;16.54;39.60
14383;BME280;7275;50.328;8.720;2023-03-18T00:21:16;99234.47;;;16.54;39.73
14383;BME280;7275;50.328;8.720;2023-03-18T00:23:44;99237.13;;;16.54;39.82
14383;BME280;7275;50.328;8.720;2023-03-18T00:26:14;99235.22;;;16.56;39.73
14383;BME280;7275;50.328;8.720;2023-03-18T00:28:43;99240.56;;;16.56;39.87
14383;BME280;7275;50.328;8.720;2023-03-18T00:31:11;99250.38;;;16.55;39.92
14383;BME280;7275;50.328;8.720;2023-03-18T00:33:40;99253.78;;;16.57;39.83
14383;BME280;7275;50.328;8.720;2023-03-18T00:36:08;99252.81;;;16.58;39.78
14383;BME280;7275;50.328;8.720;2023-03-18T00:38:39;99252.81;;;16.58;39.88
14383;BME280;7275;50.328;8.720;2023-03-18T00:41:08;99256.56;;;16.56;39.97
14383;BME280;7275;50.328;8.720;2023-03-18T00:43:38;99258.56;;;16.52;40.11
14383;BME280;7275;50.328;8.720;2023-03-18T00:46:17;99251.41;;;16.53;40.29
14383;BME280;7275;50.328;8.720;2023-03-18T00:48:45;99254.94;;;16.53;40.17
14383;BME280;7275;50.328;8.720;2023-03-18T00:51:14;99253.03;;;16.55;40.34
14383;BME280;7275;50.328;8.720;2023-03-18T00:53:45;99256.44;;;16.57;40.43
14383;BME280;7275;50.328;8.720;2023-03-18T00:56:14;99251.84;;;16.59;40.34
14383;BME280;7275;50.328;8.720;2023-03-18T00:58:43;99250.13;;;16.58;40.42
14383;BME280;7275;50.328;8.720;2023-03-18T01:01:11;99254.41;;;16.61;40.35
14383;BME280;7275;50.328;8.720;2023-03-18T01:03:41;99257.19;;;16.59;40.47
14383;BME280;7275;50.328;8.720;2023-03-18T01:06:11;99262.53;;;16.59;40.58
14383;BME280;7275;50.328;8.720;2023-03-18T01:08:39;99255.59;;;16.57;40.68
14383;BME280;7275;50.328;8.720;2023-03-18T01:11:08;99242.25;;;16.57;40.81
14383;BME280;7275;50.328;8.720;2023-03-18T01:13:36;99235.22;;;16.56;41.00
14383;BME280;7275;50.328;8.720;2023-03-18T01:16:04;99235.22;;;16.56;41.02
14383;BME280;7275;50.328;8.720;2023-03-18T01:18:33;99239.69;;;16.55;41.08
14383;BME280;7275;50.328;8.720;2023-03-18T01:21:03;99228.16;;;16.55;41.17
14383;BME280;7275;50.328;8.720;2023-03-18T01:23:30;99234.47;;;16.54;41.09
14383;BME280;7275;50.328;8.720;2023-03-18T01:25:58;99245.44;;;16.49;41.18
14383;BME280;7275;50.328;8.720;2023-03-18T01:28:26;99248.41;;;16.45;41.39
14383;BME280;7275;50.328;8.720;2023-03-18T01:30:55;99251.59;;;16.37;41.56
14383;BME280;7275;50.328;8.720;2023-03-18T01:33:23;99254.56;;;16.33;41.63
14383;BME280;7275;50.328;8.720;2023-03-18T01:35:52;99255.63;;;16.30;41.75
14383;BME280;7275;50.328;8.720;2023-03-18T01:38:23;99247.63;;;16.30;41.66
14383;BME280;7275;50.328;8.720;2023-03-18T01:40:51;99253.72;;;16.32;42.17
14383;BME280;7275;50.328;8.720;2023-03-18T01:43:21;99254.47;;;16.34;41.85
14383;BME280;7275;50.328;8.720;2023-03-18T01:45:51;99247.31;;;16.35;41.96
14383;BME280;7275;50.328;8.720;2023-03-18T01:48:21;99249.00;;;16.36;42.08
14383;BME280;7275;50.328;8.720;2023-03-18T01:50:53;99251.91;;;16.33;42.12
14383;BME280;7275;50.328;8.720;2023-03-18T01:53:25;99249.53;;;16.28;42.15
14383;BME280;7275;50.328;8.720;2023-03-18T01:55:54;99247.06;;;16.25;42.15
14383;BME280;7275;50.328;8.720;2023-03-18T01:58:26;99268.41;;;16.25;42.46
14383;BME280;7275;50.328;8.720;2023-03-18T02:00:58;99251.56;;;16.25;42.41
14383;BME280;7275;50.328;8.720;2023-03-18T02:03:26;99266.72;;;16.24;42.53
14383;BME280;7275;50.328;8.720;2023-03-18T02:05:54;99265.84;;;16.24;42.59
14383;BME280;7275;50.328;8.720;2023-03-18T02:08:23;99250.81;;;16.23;42.54
14383;BME280;7275;50.328;8.720;2023-03-18T02:10:51;99249.97;;;16.22;42.57
14383;BME280;7275;50.328;8.720;2023-03-18T02:13:19;99265.84;;;16.24;42.78
14383;BME280;7275;50.328;8.720;2023-03-18T02:15:50;99258.72;;;16.24;42.70
14383;BME280;7275;50.328;8.720;2023-03-18T02:18:20;99263.19;;;16.24;42.87
14383;BME280;7275;50.328;8.720;2023-03-18T02:21:17;99266.06;;;16.21;42.84
14383;BME280;7275;50.328;8.720;2023-03-18T02:23:55;99255.72;;;16.16;42.79
14383;BME280;7275;50.328;8.720;2023-03-18T02:26:30;99250.69;;;16.12;43.05
14383;BME280;7275;50.328;8.720;2023-03-18T02:29:02;99251.53;;;16.12;43.04
14383;BME280;7275;50.328;8.720;2023-03-18T02:31:35;99254.00;;;16.15;43.09
14383;BME280;7275;50.328;8.720;2023-03-18T02:34:04;99253.88;;;16.17;42.98
14383;BME280;7275;50.328;8.720;2023-03-18T02:36:34;99242.25;;;16.18;43.21
14383;BME280;7275;50.328;8.720;2023-03-18T02:39:03;99242.06;;;16.21;43.10
14383;BME280;7275;50.328;8.720;2023-03-18T02:41:32;99247.41;;;16.21;43.17
14383;BME280;7275;50.328;8.720;2023-03-18T02:44:02;99229.78;;;16.18;43.00
14383;BME280;7275;50.328;8.720;2023-03-18T02:46:37;99239.72;;;16.16;43.11
14383;BME280;7275;50.328;8.720;2023-03-18T02:49:08;99240.19;;;16.09;43.28
14383;BME280;7275;50.328;8.720;2023-03-18T02:51:37;99235.19;;;16.04;43.20
14383;BME280;7275;50.328;8.720;2023-03-18T02:54:07;99246.91;;;16.02;43.52
14383;BME280;7275;50.328;8.720;2023-03-18T02:56:35;99254.16;;;15.99;43.46
14383;BME280;7275;50.328;8.720;2023-03-18T02:59:05;99254.56;;;15.93;43.72
14383;BME280;7275;50.328;8.720;2023-03-18T03:01:33;99250.59;;;15.86;43.82
14383;BME280;7275;50.328;8.720;2023-03-18T03:04:03;99254.59;;;15.79;43.85
14383;BME280;7275;50.328;8.720;2023-03-18T03:06:32;99248.00;;;15.72;44.13
14383;BME280;7275;50.328;8.720;2023-03-18T03:09:00;99251.88;;;15.67;44.06
14383;BME280;7275;50.328;8.720;2023-03-18T03:11:29;99249.72;;;15.59;44.13
14383;BME280;7275;50.328;8.720;2023-03-18T03:13:56;99251.00;;;15.54;44.38
14383;BME280;7275;50.328;8.720;2023-03-18T03:16:25;99249.66;;;15.47;44.40
14383;BME280;7275;50.328;8.720;2023-03-18T03:18:53;99248.22;;;15.41;44.57
14383;BME280;7275;50.328;8.720;2023-03-18T03:21:21;99241.41;;;15.37;44.65
14383;BME280;7275;50.328;8.720;2023-03-18T03:23:49;99262.78;;;15.36;44.76
14383;BME280;7275;50.328;8.720;2023-03-18T03:26:16;99269.25;;;15.32;44.87
14383;BME280;7275;50.328;8.720;2023-03-18T03:28:44;99272.19;;;15.27;44.83
14383;BME280;7275;50.328;8.720;2023-03-18T03:31:12;99265.56;;;15.20;45.02
14383;BME280;7275;50.328;8.720;2023-03-18T03:33:41;99264.06;;;15.16;45.15
14383;BME280;7275;50.328;8.720;2023-03-18T03:36:11;99267.09;;;15.10;45.31
14383;BME280;7275;50.328;8.720;2023-03-18T03:38:39;99278.13;;;15.04;45.36
14383;BME280;7275;50.328;8.720;2023-03-18T03:41:08;99271.38;;;14.98;45.48
14383;BME280;7275;50.328;8.720;2023-03-18T03:43:37;99273.47;;;14.93;45.24
14383;BME280;7275;50.328;8.720;2023-03-18T03:46:06;99270.13;;;14.90;45.69
14383;BME280;7275;50.328;8.720;2023-03-18T03:48:34;99264.25;;;14.85;45.87
14383;BME280;7275;50.328;8.720;2023-03-18T03:51:04;99275.06;;;14.82;46.11
14383;BME280;7275;50.328;8.720;2023-03-18T03:53:32;99286.75;;;14.79;46.21
14383;BME280;7275;50.328;8.720;2023-03-18T03:56:01;99279.91;;;14.75;46.44
14383;BME280;7275;50.328;8.720;2023-03-18T03:58:29;99300.53;;;14.72;46.44
14383;BME280;7275;50.328;8.720;2023-03-18T04:00:57;99300.69;;;14.69;46.45
14383;BME280;7275;50.328;8.720;2023-03-18T04:03:25;99297.38;;;14.65;46.71
14383;BME280;7275;50.328;8.720;2023-03-18T04:05:53;99299.47;;;14.60;46.82
14383;BME280;7275;50.328;8.720;2023-03-18T04:08:23;99303.25;;;14.56;46.87
14383;BME280;7275;50.328;8.720;2023-03-18T04:10:50;99302.47;;;14.54;46.88
14383;BME280;7275;50.328;8.720;2023-03-18T04:13:18;99293.84;;;14.51;47.10
14383;BME280;7275;50.328;8.720;2023-03-18T04:15:46;99296.69;;;14.48;47.13
14383;BME280;7275;50.328;8.720;2023-03-18T04:18:13;99292.41;;;14.45;47.15
14383;BME280;7275;50.328;8.720;2023-03-18T04:20:42;99303.91;;;14.46;47.23
14383;BME280;7275;50.328;8.720;2023-03-18T04:23:09;99310.06;;;14.46;47.34
14383;BME280;7275;50.328;8.720;2023-03-18T04:25:39;99305.72;;;14.45;47.39
14383;BME280;7275;50.328;8.720;2023-03-18T04:28:07;99308.44;;;14.43;47.41
14383;BME280;7275;50.328;8.720;2023-03-18T04:30:34;99293.53;;;14.41;47.41
14383;BME280;7275;50.328;8.720;2023-03-18T04:33:02;99291.91;;;14.38;47.42
14383;BME280;7275;50.328;8.720;2023-03-18T04:35:30;99286.59;;;14.38;47.50
14383;BME280;7275;50.328;8.720;2023-03-18T04:37:59;99289.34;;;14.37;47.44
14383;BME280;7275;50.328;8.720;2023-03-18T04:40:26;99275.28;;;14.35;47.47
14383;BME280;7275;50.328;8.720;2023-03-18T04:42:55;99280.00;;;14.30;47.50
14383;BME280;7275;50.328;8.720;2023-03-18T04:45:23;99289.84;;;14.28;47.49
14383;BME280;7275;50.328;8.720;2023-03-18T04:47:51;99294.41;;;14.26;47.63
14383;BME280;7275;50.328;8.720;2023-03-18T04:50:18;99296.19;;;14.25;47.73
14383;BME280;7275;50.328;8.720;2023-03-18T04:52:46;99288.31;;;14.24;47.80
14383;BME280;7275;50.328;8.720;2023-03-18T04:55:14;99283.94;;;14.23;47.92
14383;BME280;7275;50.328;8.720;2023-03-18T04:57:43;99280.44;;;14.22;48.16
14383;BME280;7275;50.328;8.720;2023-03-18T05:00:14;99295.34;;;14.25;48.08
14383;BME280;7275;50.328;8.720;2023-03-18T05:02:43;99298.84;;;14.25;48.25
14383;BME280;7275;50.328;8.720;2023-03-18T05:05:11;99297.06;;;14.26;48.22
14383;BME280;7275;50.328;8.720;2023-03-18T05:07:39;99294.31;;;14.27;48.43
14383;BME280;7275;50.328;8.720;2023-03-18T05:10:08;99286.25;;;14.29;48.32
14383;BME280;7275;50.328;8.720;2023-03-18T05:12:36;99280.94;;;14.29;48.42
14383;BME280;7275;50.328;8.720;2023-03-18T05:15:05;99285.34;;;14.30;48.42
14383;BME280;7275;50.328;8.720;2023-03-18T05:17:34;99291.50;;;14.30;48.58
14383;BME280;7275;50.328;8.720;2023-03-18T05:20:03;99283.59;;;14.29;48.50
14383;BME280;7275;50.328;8.720;2023-03-18T05:22:30;99294.31;;;14.27;48.62
14383;BME280;7275;50.328;8.720;2023-03-18T05:24:58;99300.59;;;14.26;48.52
14383;BME280;7275;50.328;8.720;2023-03-18T05:27:25;99307.78;;;14.24;48.68
14383;BME280;7275;50.328;8.720;2023-03-18T05:29:54;99294.66;;;14.21;48.67
14383;BME280;7275;50.328;8.720;2023-03-18T05:32:22;99298.28;;;14.20;48.78
14383;BME280;7275;50.328;8.720;2023-03-18T05:34:52;99293.91;;;14.19;48.84
14383;BME280;7275;50.328;8.720;2023-03-18T05:37:19;99291.25;;;14.19;48.76
14383;BME280;7275;50.328;8.720;2023-03-18T05:39:47;99294.88;;;14.18;49.00
14383;BME280;7275;50.328;8.720;2023-03-18T05:42:15;99305.50;;;14.18;48.96
14383;BME280;7275;50.328;8.720;2023-03-18T05:44:43;99300.19;;;14.18;49.03
14383;BME280;7275;50.328;8.720;2023-03-18T05:47:11;99307.97;;;14.21;48.96
14383;BME280;7275;50.328;8.720;2023-03-18T05:49:38;99300.09;;;14.20;49.08
14383;BME280;7275;50.328;8.720;2023-03-18T05:52:08;99303.59;;;14.20;49.23
14383;BME280;7275;50.328;8.720;2023-03-18T05:54:35;99301.78;;;14.21;49.22
14383;BME280;7275;50.328;8.720;2023-03-18T05:57:03;99295.53;;;14.22;49.17
14383;BME280;7275;50.328;8.720;2023-03-18T05:59:30;99299.97;;;14.21;49.28
14383;BME280;7275;50.328;8.720;2023-03-18T06:01:58;99299.13;;;14.21;49.30
14383;BME280;7275;50.328;8.720;2023-03-18T06:04:26;99307.97;;;14.21;49.40
14383;BME280;7275;50.328;8.720;2023-03-18T06:06:53;99303.50;;;14.22;49.55
14383;BME280;7275;50.328;8.720;2023-03-18T06:09:23;99310.63;;;14.21;49.49
14383;BME280;7275;50.328;8.720;2023-03-18T06:11:52;99302.66;;;14.21;49.57
14383;BME280;7275;50.328;8.720;2023-03-18T06:14:19;99323.91;;;14.21;49.82
14383;BME280;7275;50.328;8.720;2023-03-18T06:16:47;99324.78;;;14.22;49.81
14383;BME280;7275;50.328;8.720;2023-03-18T06:19:15;99326.31;;;14.26;50.02
14383;BME280;7275;50.328;8.720;2023-03-18T06:21:42;99320.81;;;14.29;49.93
14383;BME280;7275;50.328;8.720;2023-03-18T06:24:10;99318.94;;;14.31;50.04
14383;BME280;7275;50.328;8.720;2023-03-18T06:26:41;99319.72;;;14.33;49.95
14383;BME280;7275;50.328;8.720;2023-03-18T06:29:08;99331.19;;;14.33;49.74
14383;BME280;7275;50.328;8.720;2023-03-18T06:31:37;99320.50;;;14.35;49.74
14383;BME280;7275;50.328;8.720;2023-03-18T06:34:04;99327.50;;;14.36;49.87
14383;BME280;7275;50.328;8.720;2023-03-18T06:36:32;99334.63;;;14.35;49.77
14383;BME280;7275;50.328;8.720;2023-03-18T06:38:59;99336.44;;;14.35;49.92
14383;BME280;7275;50.328;8.720;2023-03-18T06:41:27;99339.13;;;14.35;49.82
14383;BME280;7275;50.328;8.720;2023-03-18T06:43:56;99336.44;;;14.35;49.89
14383;BME280;7275;50.328;8.720;2023-03-18T06:46:24;99339.94;;;14.35;49.79
14383;BME280;7275;50.328;8.720;2023-03-18T06:48:52;99348.88;;;14.34;49.74
14383;BME280;7275;50.328;8.720;2023-03-18T06:51:19;99348.88;;;14.34;49.71
14383;BME280;7275;50.328;8.720;2023-03-18T06:53:47;99342.59;;;14.35;49.68
14383;BME280;7275;50.328;8.720;2023-03-18T06:56:14;99348.69;;;14.37;49.66
14383;BME280;7275;50.328;8.720;2023-03-18T06:58:42;99347.75;;;14.38;49.61
14383;BME280;7275;50.328;8.720;2023-03-18T07:01:11;99347.66;;;14.40;49.71
14383;BME280;7275;50.328;8.720;2023-03-18T07:03:39;99343.09;;;14.42;49.65
14383;BME280;7275;50.328;8.720;2023-03-18T07:06:07;99350.56;;;14.51;49.90
14383;BME280;7275;50.328;8.720;2023-03-18T07:08:36;99354.22;;;14.64;49.99
14383;BME280;7275;50.328;8.720;2023-03-18T07:11:04;99349.78;;;14.79;50.11
14383;BME280;7275;50.328;8.720;2023-03-18T07:13:32;99354.16;;;14.94;50.31
14383;BME280;7275;50.328;8.720;2023-03-18T07:16:00;99349.81;;;15.07;50.38
14383;BME280;7275;50.328;8.720;2023-03-18T07:18:29;99357.91;;;15.19;50.34
14383;BME280;7275;50.328;8.720;2023-03-18T07:20:56;99361.81;;;15.28;50.18
14383;BME280;7275;50.328;8.720;2023-03-18T07:23:24;99356.09;;;15.34;49.89
14383;BME280;7275;50.328;8.720;2023-03-18T07:25:52;99354.09;;;15.38;49.68
14383;BME280;7275;50.328;8.720;2023-03-18T07:28:20;99354.03;;;15.39;49.53
14383;BME280;7275;50.328;8.720;2023-03-18T07:30:48;99360.94;;;15.42;49.70
14383;BME280;7275;50.328;8.720;2023-03-18T07:33:19;99353.47;;;15.48;49.77
14383;BME280;7275;50.328;8.720;2023-03-18T07:35:47;99351.91;;;15.58;49.84
14383;BME280;7275;50.328;8.720;2023-03-18T07:38:16;99356.69;;;15.67;50.04
14383;BME280;7275;50.328;8.720;2023-03-18T07:40:44;99363.34;;;15.74;49.69
14383;BME280;7275;50.328;8.720;2023-03-18T07:43:12;99368.94;;;15.84;49.87
14383;BME280;7275;50.328;8.720;2023-03-18T07:45:39;99372.72;;;15.94;49.97
14383;BME280;7275;50.328;8.720;2023-03-18T07:48:07;99363.84;;;16.08;49.94
14383;BME280;7275;50.328;8.720;2023-03-18T07:50:34;99369.13;;;16.22;50.09
14383;BME280;7275;50.328;8.720;2023-03-18T07:53:03;99377.06;;;16.36;50.06
14383;BME280;7275;50.328;8.720;2023-03-18T07:55:31;99377.97;;;16.49;50.08
14383;BME280;7275;50.328;8.720;2023-03-18T07:58:00;99379.78;;;16.62;50.05
14383;BME280;7275;50.328;8.720;2023-03-18T08:00:27;99374.47;;;16.75;49.82
14383;BME280;7275;50.328;8.720;2023-03-18T08:02:56;99365.50;;;16.89;49.61
14383;BME280;7275;50.328;8.720;2023-03-18T08:05:23;99371.59;;;17.03;49.53
14383;BME280;7275;50.328;8.720;2023-03-18T08:07:51;99366.28;;;17.16;49.38
14383;BME280;7275;50.328;8.720;2023-03-18T08:10:20;99364.47;;;17.29;49.18
14383;BME280;7275;50.328;8.720;2023-03-18T08:12:47;99366.28;;;17.41;49.25
14383;BME280;7275;50.328;8.720;2023-03-18T08:15:19;99370.78;;;17.53;48.93
14383;BME280;7275;50.328;8.720;2023-03-18T08:17:47;99371.63;;;17.66;48.90
14383;BME280;7275;50.328;8.720;2023-03-18T08:20:14;99373.41;;;17.78;48.62
14383;BME280;7275;50.328;8.720;2023-03-18T08:22:42;99376.19;;;17.89;48.38
14383;BME280;7275;50.328;8.720;2023-03-18T08:25:11;99371.63;;;18.02;48.15
14383;BME280;7275;50.328;8.720;2023-03-18T08:27:40;99369.88;;;18.14;47.82
14383;BME280;7275;50.328;8.720;2023-03-18T08:30:08;99369.72;;;18.28;47.46
14383;BME280;7275;50.328;8.720;2023-03-18T08:32:36;99376.75;;;18.42;47.44
14383;BME280;7275;50.328;8.720;2023-03-18T08:35:05;99373.19;;;18.54;47.07
14383;BME280;7275;50.328;8.720;2023-03-18T08:37:32;99378.47;;;18.66;46.76
14383;BME280;7275;50.328;8.720;2023-03-18T08:40:01;99378.50;;;18.77;46.51
14383;BME280;7275;50.328;8.720;2023-03-18T08:42:29;99391.06;;;18.88;46.46
14383;BME280;7275;50.328;8.720;2023-03-18T08:44:57;99378.69;;;18.98;46.04
14383;BME280;7275;50.328;8.720;2023-03-18T08:47:25;99377.97;;;19.07;45.96
14383;BME280;7275;50.328;8.720;2023-03-18T08:49:54;99375.31;;;19.18;45.98
14383;BME280;7275;50.328;8.720;2023-03-18T08:52:23;99374.50;;;19.29;45.71
14383;BME280;7275;50.328;8.720;2023-03-18T08:54:50;99373.22;;;19.45;45.44
14383;BME280;7275;50.328;8.720;2023-03-18T08:57:18;99371.75;;;19.63;45.50
14383;BME280;7275;50.328;8.720;2023-03-18T08:59:45;99369.38;;;20.03;44.90
14383;BME280;7275;50.328;8.720;2023-03-18T09:02:14;99366.44;;;20.71;43.99
14383;BME280;7275;50.328;8.720;2023-03-18T09:04:44;99356.22;;;21.47;42.54
14383;BME280;7275;50.328;8.720;2023-03-18T09:07:13;99354.97;;;22.21;42.01
14383;BME280;7275;50.328;8.720;2023-03-18T09:09:44;99361.13;;;23.00;41.54
14383;BME280;7275;50.328;8.720;2023-03-18T09:12:12;99354.38;;;23.79;40.76
14383;BME280;7275;50.328;8.720;2023-03-18T09:14:40;99354.97;;;24.54;40.60
14383;BME280;7275;50.328;8.720;2023-03-18T09:17:09;99358.63;;;25.42;40.09
14383;BME280;7275;50.328;8.720;2023-03-18T09:19:38;99358.94;;;26.40;39.22
14383;BME280;7275;50.328;8.720;2023-03-18T09:22:06;99345.13;;;27.23;38.15
14383;BME280;7275;50.328;8.720;2023-03-18T09:24:34;99352.75;;;27.52;37.15
14383;BME280;7275;50.328;8.720;2023-03-18T09:27:01;99342.97;;;27.35;36.63
14383;BME280;7275;50.328;8.720;2023-03-18T09:29:29;99353.97;;;26.93;36.29
14383;BME280;7275;50.328;8.720;2023-03-18T09:31:57;99356.88;;;26.34;35.90
14383;BME280;7275;50.328;8.720;2023-03-18T09:34:25;99358.97;;;25.72;35.96
14383;BME280;7275;50.328;8.720;2023-03-18T09:36:54;99353.38;;;25.22;36.61
14383;BME280;7275;50.328;8.720;2023-03-18T09:39:23;99359.47;;;24.81;36.53
14383;BME280;7275;50.328;8.720;2023-03-18T09:42:08;99353.34;;;24.44;37.11
14383;BME280;7275;50.328;8.720;2023-03-18T09:44:42;99356.59;;;24.20;37.56
14383;BME280;7275;50.328;8.720;2023-03-18T09:47:25;99350.88;;;24.06;37.78
14383;BME280;7275;50.328;8.720;2023-03-18T09:50:05;99352.47;;;24.26;37.90
14383;BME280;7275;50.328;8.720;2023-03-18T09:52:42;99346.53;;;24.40;37.69
14383;BME280;7275;50.328;8.720;2023-03-18T09:55:19;99347.25;;;24.77;37.98
14383;BME280;7275;50.328;8.720;2023-03-18T09:57:49;99351.78;;;25.37;37.54
14383;BME280;7275;50.328;8.720;2023-03-18T10:00:33;99347.88;;;25.91;36.77
14383;BME280;7275;50.328;8.720;2023-03-18T10:03:05;99349.28;;;26.45;36.16
14383;BME280;7275;50.328;8.720;2023-03-18T10:05:35;99353.78;;;26.78;35.85
14383;BME280;7275;50.328;8.720;2023-03-18T10:08:15;99356.00;;;27.07;35.27
14383;BME280;7275;50.328;8.720;2023-03-18T10:10:46;99355.97;;;27.47;34.53
14383;BME280;7275;50.328;8.720;2023-03-18T10:13:20;99361.81;;;27.91;34.19
14383;BME280;7275;50.328;8.720;2023-03-18T10:15:52;99359.56;;;28.41;33.79
14383;BME280;7275;50.328;8.720;2023-03-18T10:18:25;99356.38;;;28.91;33.54
14383;BME280;7275;50.328;8.720;2023-03-18T10:21:04;99355.69;;;29.35;32.51
14383;BME280;7275;50.328;8.720;2023-03-18T10:23:46;99344.72;;;29.72;32.09
14383;BME280;7275;50.328;8.720;2023-03-18T10:26:19;99344.19;;;30.06;31.59
14383;BME280;7275;50.328;8.720;2023-03-18T10:29:06;99348.97;;;30.33;32.00
14383;BME280;7275;50.328;8.720;2023-03-18T10:31:49;99339.47;;;30.64;31.26
14383;BME280;7275;50.328;8.720;2023-03-18T10:34:21;99341.63;;;30.90;30.75
14383;BME280;7275;50.328;8.720;2023-03-18T10:36:50;99338.97;;;31.18;30.84
14383;BME280;7275;50.328;8.720;2023-03-18T10:39:25;99342.53;;;31.39;30.37
14383;BME280;7275;50.328;8.720;2023-03-18T10:41:57;99333.47;;;31.67;29.66
14383;BME280;7275;50.328;8.720;2023-03-18T10:44:29;99344.44;;;31.73;28.90
14383;BME280;7275;50.328;8.720;2023-03-18T10:47:02;99334.72;;;31.64;28.87
14383;BME280;7275;50.328;8.720;2023-03-18T10:49:39;99338.25;;;31.58;29.10
14383;BME280;7275;50.328;8.720;2023-03-18T10:52:16;99336.28;;;31.45;29.35
14383;BME280;7275;50.328;8.720;2023-03-18T10:54:47;99339.06;;;31.52;29.14
14383;BME280;7275;50.328;8.720;2023-03-18T10:57:19;99348.44;;;31.71;28.64
14383;BME280;7275;50.328;8.720;2023-03-18T10:59:48;99335.72;;;31.91;28.52
14383;BME280;7275;50.328;8.720;2023-03-18T11:02:18;99332.47;;;32.08;28.08
14383;BME280;7275;50.328;8.720;2023-03-18T11:04:51;99328.75;;;32.22;27.79
14383;BME280;7275;50.328;8.720;2023-03-18T11:07:21;99334.47;;;32.34;27.59
14383;BME280;7275;50.328;8.720;2023-03-18T11:09:53;99334.44;;;32.27;27.60
14383;BME280;7275;50.328;8.720;2023-03-18T11:12:23;99323.69;;;32.26;27.35
14383;BME280;7275;50.328;8.720;2023-03-18T11:14:52;99341.69;;;32.48;27.60
14383;BME280;7275;50.328;8.720;2023-03-18T11:17:21;99339.84;;;32.62;27.12
14383;BME280;7275;50.328;8.720;2023-03-18T11:20:00;99335.25;;;32.69;26.87
14383;BME280;7275;50.328;8.720;2023-03-18T11:22:31;99342.84;;;32.86;26.70
14383;BME280;7275;50.328;8.720;2023-03-18T11:25:04;99340.34;;;33.04;26.36
14383;BME280;7275;50.328;8.720;2023-03-18T11:27:34;99333.63;;;33.20;26.74
14383;BME280;7275;50.328;8.720;2023-03-18T11:30:12;99336.56;;;33.38;26.36
14383;BME280;7275;50.328;8.720;2023-03-18T11:32:57;99327.97;;;33.54;26.21
14383;BME280;7275;50.328;8.720;2023-03-18T11:35:32;99339.97;;;33.66;25.84
14383;BME280;7275;50.328;8.720;2023-03-18T11:38:03;99340.75;;;33.80;25.74
14383;BME280;7275;50.328;8.720;2023-03-18T11:40:33;99340.72;;;33.93;25.56
14383;BME280;7275;50.328;8.720;2023-03-18T11:43:02;99332.06;;;34.03;25.58
14383;BME280;7275;50.328;8.720;2023-03-18T11:45:46;99325.91;;;34.14;25.43
14383;BME280;7275;50.328;8.720;2023-03-18T11:48:18;99330.41;;;34.02;25.09
14383;BME280;7275;50.328;8.720;2023-03-18T11:53:59;99337.75;;;34.08;24.89
14383;BME280;7275;50.328;8.720;2023-03-18T11:56:33;99326.78;;;34.08;25.20
14383;BME280;7275;50.328;8.720;2023-03-18T11:59:11;99328.88;;;34.19;24.82
14383;BME280;7275;50.328;8.720;2023-03-18T12:01:48;99333.53;;;34.12;24.48
14383;BME280;7275;50.328;8.720;2023-03-18T12:04:33;99338.84;;;34.00;24.79
14383;BME280;7275;50.328;8.720;2023-03-18T12:07:23;99335.75;;;33.51;24.35
14383;BME280;7275;50.328;8.720;2023-03-18T12:10:00;99334.63;;;32.80;24.68
14383;BME280;7275;50.328;8.720;2023-03-18T12:12:48;99328.84;;;32.01;25.34
14383;BME280;7275;50.328;8.720;2023-03-18T12:15:26;99336.06;;;31.26;25.53
14383;BME280;7275;50.328;8.720;2023-03-18T12:18:11;99338.47;;;30.51;26.50
14383;BME280;7275;50.328;8.720;2023-03-18T12:20:47;99332.63;;;29.89;26.57
14383;BME280;7275;50.328;8.720;2023-03-18T12:23:35;99336.72;;;29.41;27.25
14383;BME280;7275;50.328;8.720;2023-03-18T12:26:07;99348.63;;;29.03;27.78
14383;BME280;7275;50.328;8.720;2023-03-18T12:28:47;99344.19;;;28.57;28.06
14383;BME280;7275;50.328;8.720;2023-03-18T12:31:27;99331.50;;;28.10;27.75
14383;BME280;7275;50.328;8.720;2023-03-18T12:34:02;99333.16;;;27.73;28.30
14383;BME280;7275;50.328;8.720;2023-03-18T12:36:40;99330.03;;;27.45;28.74
14383;BME280;7275;50.328;8.720;2023-03-18T12:39:27;99328.34;;;27.20;29.18
14383;BME280;7275;50.328;8.720;2023-03-18T12:42:02;99318.50;;;27.11;29.62
14383;BME280;7275;50.328;8.720;2023-03-18T12:44:49;99319.00;;;27.22;29.45
14383;BME280;7275;50.328;8.720;2023-03-18T12:47:26;99325.78;;;27.26;29.66
14383;BME280;7275;50.328;8.720;2023-03-18T12:49:58;99313.56;;;27.14;29.98
14383;BME280;7275;50.328;8.720;2023-03-18T12:52:30;99330.56;;;26.92;29.35
14383;BME280;7275;50.328;8.720;2023-03-18T12:55:04;99320.00;;;26.65;29.49
14383;BME280;7275;50.328;8.720;2023-03-18T12:57:39;99325.41;;;26.41;29.68
14383;BME280;7275;50.328;8.720;2023-03-18T13:00:19;99315.50;;;26.16;30.09
14383;BME280;7275;50.328;8.720;2023-03-18T13:02:56;99312.22;;;26.04;30.35
14383;BME280;7275;50.328;8.720;2023-03-18T13:05:35;99312.34;;;25.94;30.67
14383;BME280;7275;50.328;8.720;2023-03-18T13:08:25;99320.47;;;25.86;30.75
14383;BME280;7275;50.328;8.720;2023-03-18T13:11:01;99315.69;;;25.80;30.95
14383;BME280;7275;50.328;8.720;2023-03-18T13:13:33;99309.72;;;25.77;30.82
14383;BME280;7275;50.328;8.720;2023-03-18T13:16:05;99316.19;;;25.76;30.70
14383;BME280;7275;50.328;8.720;2023-03-18T13:18:38;99304.50;;;25.75;30.68
14383;BME280;7275;50.328;8.720;2023-03-18T13:21:12;99304.31;;;25.77;31.08
14383;BME280;7275;50.328;8.720;2023-03-18T13:23:57;99304.00;;;25.80;30.93
14383;BME280;7275;50.328;8.720;2023-03-18T13:26:40;99298.78;;;25.86;30.73
14383;BME280;7275;50.328;8.720;2023-03-18T13:29:19;99296.28;;;25.93;30.95
14383;BME280;7275;50.328;8.720;2023-03-18T13:31:59;99295.09;;;26.03;30.93